Overview Statistics Trail Chart Weather Telemetry Raw packets
 

This is the latest recevied weather packets stored in our database for station/object W0AKY-13. If no packets are shown the sender has not sent any weather packets the latest 10 day(s).

<< 71 72 73 74 75 76 77 >>
Time Temp. Humidity Pressure Rain* Wind** Luminosity Snow
1788020560 27.22° C 66% 1014.8 hPa 0 mm - 300 W/m² -
1788020256 26.67° C 65% 1014.8 hPa 0 mm - 283 W/m² -
1788019952 26.67° C 63% 1014.9 hPa 0 mm - 270 W/m² -
1788019652 26.11° C 70% 1014.6 hPa 0 mm - 163 W/m² -
1788019352 26.11° C 69% 1015 hPa 0 mm - 140 W/m² -
1788019050 25.56° C 68% 1014.8 hPa 0 mm - 128 W/m² -
1788018750 25.56° C 68% 1015 hPa 0 mm - 120 W/m² -
1788018445 25° C 69% 1014.9 hPa 0 mm - 102 W/m² -
1788018144 25° C 70% 1015.1 hPa 0 mm - 78 W/m² -
1788017841 25° C 71% 1015.2 hPa 0 mm - 66 W/m² -
1788017536 25° C 70% 1015.3 hPa 0 mm - 56 W/m² -
1788017233 25° C 68% 1015.4 hPa 0 mm - 64 W/m² -
1788016928 25° C 68% 1015.4 hPa 0 mm - 79 W/m² -
1788016627 25° C 68% 1015.3 hPa 0 mm - 89 W/m² -
1788016326 25° C 68% 1015.3 hPa 0 mm - 191 W/m² -
1788016026 24.44° C 69% 1015.4 hPa 0 mm - 135 W/m² -
1788015725 24.44° C 69% 1015.7 hPa 0 mm - 120 W/m² -
1788015421 24.44° C 70% 1015.5 hPa 0 mm - 129 W/m² -
1788015115 23.89° C 70% 1015.6 hPa 0 mm - 99 W/m² -
1788014813 23.89° C 70% 1015.6 hPa 0 mm - 84 W/m² -
1788014508 23.89° C 70% 1015.7 hPa 0 mm - 69 W/m² -
1788014203 23.89° C 69% 1015.8 hPa 0 mm - 64 W/m² -
1788013903 23.89° C 71% 1015.5 hPa 0 mm - 72 W/m² -
1788013597 23.89° C 69% 1015.7 hPa 0 mm - 78 W/m² -
1788013292 23.33° C 70% 1015.7 hPa 0 mm - 79 W/m² -

* Rain latest hour (hover to see other rain measurements)
** Current wind speed in m/s (hover to see current wind gust speed)